sensor_id;sensor_type;location;lat;lon;timestamp;pressure;altitude;pressure_sealevel;temperature;humidity
18022;BME280;9136;48.822;7.966;2023-04-05T00:01:02;100829.50;;;1.07;100.00
18022;BME280;9136;48.822;7.966;2023-04-05T00:03:53;100847.69;;;1.13;100.00
18022;BME280;9136;48.822;7.966;2023-04-05T00:06:44;100850.41;;;1.23;100.00
18022;BME280;9136;48.822;7.966;2023-04-05T00:09:33;100848.63;;;1.17;100.00
18022;BME280;9136;48.822;7.966;2023-04-05T00:12:24;100855.47;;;1.15;100.00
18022;BME280;9136;48.822;7.966;2023-04-05T00:15:12;100839.78;;;1.06;100.00
18022;BME280;9136;48.822;7.966;2023-04-05T00:18:00;100851.94;;;1.08;100.00
18022;BME280;9136;48.822;7.966;2023-04-05T00:20:49;100822.38;;;0.96;100.00
18022;BME280;9136;48.822;7.966;2023-04-05T00:23:37;100845.88;;;1.06;100.00
18022;BME280;9136;48.822;7.966;2023-04-05T00:26:26;100829.41;;;1.03;100.00
18022;BME280;9136;48.822;7.966;2023-04-05T00:29:14;100830.28;;;1.03;100.00
18022;BME280;9136;48.822;7.966;2023-04-05T00:32:02;100824.19;;;1.01;100.00
18022;BME280;9136;48.822;7.966;2023-04-05T00:34:50;100819.78;;;0.94;100.00
18022;BME280;9136;48.822;7.966;2023-04-05T00:37:41;100809.34;;;0.88;100.00
18022;BME280;9136;48.822;7.966;2023-04-05T00:40:28;100801.63;;;0.91;100.00
18022;BME280;9136;48.822;7.966;2023-04-05T00:43:18;100826.06;;;1.08;100.00
18022;BME280;9136;48.822;7.966;2023-04-05T00:46:08;100825.34;;;1.19;100.00
18022;BME280;9136;48.822;7.966;2023-04-05T00:48:56;100804.50;;;1.09;100.00
18022;BME280;9136;48.822;7.966;2023-04-05T00:51:51;100826.28;;;1.25;100.00
18022;BME280;9136;48.822;7.966;2023-04-05T00:54:40;100798.50;;;1.12;100.00
18022;BME280;9136;48.822;7.966;2023-04-05T00:57:29;100793.31;;;1.10;100.00
18022;BME280;9136;48.822;7.966;2023-04-05T01:00:21;100815.06;;;1.25;100.00
18022;BME280;9136;48.822;7.966;2023-04-05T01:03:10;100788.13;;;1.09;100.00
18022;BME280;9136;48.822;7.966;2023-04-05T01:06:15;100794.13;;;1.08;100.00
18022;BME280;9136;48.822;7.966;2023-04-05T01:09:16;100783.69;;;1.03;100.00
18022;BME280;9136;48.822;7.966;2023-04-05T01:12:06;100784.53;;;1.01;100.00
18022;BME280;9136;48.822;7.966;2023-04-05T01:14:55;100782.66;;;0.92;100.00
18022;BME280;9136;48.822;7.966;2023-04-05T01:17:45;100797.38;;;0.96;100.00
18022;BME280;9136;48.822;7.966;2023-04-05T01:20:38;100797.38;;;0.96;100.00
18022;BME280;9136;48.822;7.966;2023-04-05T01:23:36;100821.59;;;1.00;100.00
18022;BME280;9136;48.822;7.966;2023-04-05T01:26:45;100799.03;;;0.91;100.00
18022;BME280;9136;48.822;7.966;2023-04-05T01:29:50;100773.06;;;0.83;100.00
18022;BME280;9136;48.822;7.966;2023-04-05T01:32:47;100787.66;;;0.80;100.00
18022;BME280;9136;48.822;7.966;2023-04-05T01:35:45;100769.44;;;0.72;100.00
18022;BME280;9136;48.822;7.966;2023-04-05T01:38:38;100784.22;;;0.81;100.00
18022;BME280;9136;48.822;7.966;2023-04-05T01:41:28;100794.56;;;0.79;100.00
18022;BME280;9136;48.822;7.966;2023-04-05T01:44:16;100787.69;;;0.83;100.00
18022;BME280;9136;48.822;7.966;2023-04-05T01:47:05;100776.44;;;0.79;100.00
18022;BME280;9136;48.822;7.966;2023-04-05T01:49:54;100805.81;;;0.83;100.00
18022;BME280;9136;48.822;7.966;2023-04-05T01:52:42;100772.03;;;0.74;100.00
18022;BME280;9136;48.822;7.966;2023-04-05T01:55:30;100795.50;;;0.86;100.00
18022;BME280;9136;48.822;7.966;2023-04-05T01:58:21;100763.38;;;0.70;100.00
18022;BME280;9136;48.822;7.966;2023-04-05T02:01:13;100754.53;;;0.57;100.00
18022;BME280;9136;48.822;7.966;2023-04-05T02:04:02;100763.25;;;0.64;100.00
18022;BME280;9136;48.822;7.966;2023-04-05T02:06:50;100764.13;;;0.63;100.00
18022;BME280;9136;48.822;7.966;2023-04-05T02:09:40;100743.25;;;0.51;100.00
18022;BME280;9136;48.822;7.966;2023-04-05T02:12:29;100745.84;;;0.52;100.00
18022;BME280;9136;48.822;7.966;2023-04-05T02:15:19;100750.22;;;0.56;100.00
18022;BME280;9136;48.822;7.966;2023-04-05T02:18:07;100773.66;;;0.67;100.00
18022;BME280;9136;48.822;7.966;2023-04-05T02:21:02;100763.09;;;0.53;100.00
18022;BME280;9136;48.822;7.966;2023-04-05T02:23:50;100750.06;;;0.47;100.00
18022;BME280;9136;48.822;7.966;2023-04-05T02:26:40;100738.81;;;0.45;100.00
18022;BME280;9136;48.822;7.966;2023-04-05T02:29:29;100751.03;;;0.54;100.00
18022;BME280;9136;48.822;7.966;2023-04-05T02:32:22;100760.63;;;0.61;100.00
18022;BME280;9136;48.822;7.966;2023-04-05T02:35:14;100765.81;;;0.61;100.00
18022;BME280;9136;48.822;7.966;2023-04-05T02:38:05;100770.31;;;0.73;100.00
18022;BME280;9136;48.822;7.966;2023-04-05T02:40:54;100743.38;;;0.60;100.00
18022;BME280;9136;48.822;7.966;2023-04-05T02:43:42;100782.53;;;0.83;100.00
18022;BME280;9136;48.822;7.966;2023-04-05T02:46:32;100760.81;;;0.73;100.00
18022;BME280;9136;48.822;7.966;2023-04-05T02:49:20;100770.41;;;0.79;100.00
18022;BME280;9136;48.822;7.966;2023-04-05T02:52:12;100747.72;;;0.63;100.00
18022;BME280;9136;48.822;7.966;2023-04-05T02:55:04;100760.09;;;0.80;100.00
18022;BME280;9136;48.822;7.966;2023-04-05T02:57:57;100744.28;;;0.64;100.00
18022;BME280;9136;48.822;7.966;2023-04-05T03:00:46;100777.41;;;0.86;100.00
18022;BME280;9136;48.822;7.966;2023-04-05T03:03:37;100753.16;;;0.78;100.00
18022;BME280;9136;48.822;7.966;2023-04-05T03:06:32;100781.78;;;0.89;100.00
18022;BME280;9136;48.822;7.966;2023-04-05T03:09:21;100764.44;;;0.83;100.00
18022;BME280;9136;48.822;7.966;2023-04-05T03:12:18;100756.81;;;0.92;100.00
18022;BME280;9136;48.822;7.966;2023-04-05T03:15:18;100735.84;;;0.75;100.00
18022;BME280;9136;48.822;7.966;2023-04-05T03:18:06;100741.00;;;0.74;100.00
18022;BME280;9136;48.822;7.966;2023-04-05T03:20:56;100761.00;;;0.84;100.00
18022;BME280;9136;48.822;7.966;2023-04-05T03:23:44;100776.50;;;0.82;100.00
18022;BME280;9136;48.822;7.966;2023-04-05T03:26:35;100733.09;;;0.63;100.00
18022;BME280;9136;48.822;7.966;2023-04-05T03:29:28;100769.44;;;0.72;100.00
18022;BME280;9136;48.822;7.966;2023-04-05T03:32:17;100757.19;;;0.61;100.00
18022;BME280;9136;48.822;7.966;2023-04-05T03:35:06;100731.06;;;0.44;100.00
18022;BME280;9136;48.822;7.966;2023-04-05T03:37:53;100739.69;;;0.44;100.00
18022;BME280;9136;48.822;7.966;2023-04-05T03:40:45;100780.38;;;0.57;100.00
18022;BME280;9136;48.822;7.966;2023-04-05T03:43:33;100750.75;;;0.37;100.00
18022;BME280;9136;48.822;7.966;2023-04-05T03:46:30;100759.38;;;0.38;100.00
18022;BME280;9136;48.822;7.966;2023-04-05T03:49:20;100734.16;;;0.23;100.00
18022;BME280;9136;48.822;7.966;2023-04-05T03:52:08;100771.66;;;0.49;100.00
18022;BME280;9136;48.822;7.966;2023-04-05T03:54:56;100749.00;;;0.36;100.00
18022;BME280;9136;48.822;7.966;2023-04-05T03:57:46;100751.63;;;0.38;100.00
18022;BME280;9136;48.822;7.966;2023-04-05T04:00:34;100736.72;;;0.23;100.00
18022;BME280;9136;48.822;7.966;2023-04-05T04:06:17;100734.06;;;0.18;100.00
18022;BME280;9136;48.822;7.966;2023-04-05T04:09:07;100767.94;;;0.35;100.00
18022;BME280;9136;48.822;7.966;2023-04-05T04:11:55;100747.06;;;0.23;100.00
18022;BME280;9136;48.822;7.966;2023-04-05T04:14:45;100737.25;;;0.04;100.00
18022;BME280;9136;48.822;7.966;2023-04-05T04:17:36;100738.13;;;0.04;100.00
18022;BME280;9136;48.822;7.966;2023-04-05T04:20:38;100755.38;;;0.07;100.00
18022;BME280;9136;48.822;7.966;2023-04-05T04:23:27;100741.28;;;-0.11;100.00
18022;BME280;9136;48.822;7.966;2023-04-05T04:26:18;100729.16;;;-0.15;100.00
18022;BME280;9136;48.822;7.966;2023-04-05T04:29:14;100741.34;;;-0.09;100.00
18022;BME280;9136;48.822;7.966;2023-04-05T04:32:02;100758.72;;;0.01;100.00
18022;BME280;9136;48.822;7.966;2023-04-05T04:34:52;100758.72;;;0.01;100.00
18022;BME280;9136;48.822;7.966;2023-04-05T04:37:44;100755.91;;;-0.10;100.00
18022;BME280;9136;48.822;7.966;2023-04-05T04:40:37;100730.53;;;-0.32;100.00
18022;BME280;9136;48.822;7.966;2023-04-05T04:43:28;100731.53;;;-0.27;100.00
18022;BME280;9136;48.822;7.966;2023-04-05T04:46:26;100739.38;;;-0.19;100.00
18022;BME280;9136;48.822;7.966;2023-04-05T04:49:19;100779.78;;;-0.21;100.00
18022;BME280;9136;48.822;7.966;2023-04-05T04:52:09;100734.69;;;-0.39;100.00
18022;BME280;9136;48.822;7.966;2023-04-05T04:55:01;100762.38;;;-0.32;100.00
18022;BME280;9136;48.822;7.966;2023-04-05T05:00:59;100747.88;;;-0.26;100.00
18022;BME280;9136;48.822;7.966;2023-04-05T05:03:51;100738.19;;;-0.38;100.00
18022;BME280;9136;48.822;7.966;2023-04-05T05:06:39;100746.91;;;-0.30;100.00
18022;BME280;9136;48.822;7.966;2023-04-05T05:09:28;100775.66;;;-0.13;100.00
18022;BME280;9136;48.822;7.966;2023-04-05T05:12:21;100754.59;;;-0.35;100.00
18022;BME280;9136;48.822;7.966;2023-04-05T05:15:40;100743.38;;;-0.37;100.00
18022;BME280;9136;48.822;7.966;2023-04-05T05:18:30;100746.88;;;-0.33;100.00
18022;BME280;9136;48.822;7.966;2023-04-05T05:21:18;100799.03;;;-0.07;100.00
18022;BME280;9136;48.822;7.966;2023-04-05T05:24:27;100767.63;;;-0.28;100.00
18022;BME280;9136;48.822;7.966;2023-04-05T05:27:15;100785.91;;;-0.18;100.00
18022;BME280;9136;48.822;7.966;2023-04-05T05:30:14;100755.59;;;-0.28;100.00
18022;BME280;9136;48.822;7.966;2023-04-05T05:33:08;100763.44;;;-0.22;100.00
18022;BME280;9136;48.822;7.966;2023-04-05T05:36:07;100813.03;;;0.06;100.00
18022;BME280;9136;48.822;7.966;2023-04-05T05:38:59;100773.91;;;-0.16;100.00
18022;BME280;9136;48.822;7.966;2023-04-05T05:41:51;100767.75;;;-0.21;100.00
18022;BME280;9136;48.822;7.966;2023-04-05T05:44:42;100779.16;;;-0.10;100.00
18022;BME280;9136;48.822;7.966;2023-04-05T05:47:49;100772.34;;;-0.08;100.00
18022;BME280;9136;48.822;7.966;2023-04-05T05:50:38;100801.13;;;0.12;100.00
18022;BME280;9136;48.822;7.966;2023-04-05T05:53:28;100795.00;;;0.09;100.00
18022;BME280;9136;48.822;7.966;2023-04-05T05:56:25;100796.13;;;0.20;100.00
18022;BME280;9136;48.822;7.966;2023-04-05T05:59:21;100774.44;;;0.12;100.00
18022;BME280;9136;48.822;7.966;2023-04-05T06:02:16;100798.06;;;0.33;100.00
18022;BME280;9136;48.822;7.966;2023-04-05T06:05:13;100772.91;;;0.23;100.00
18022;BME280;9136;48.822;7.966;2023-04-05T06:08:01;100809.56;;;0.50;100.00
18022;BME280;9136;48.822;7.966;2023-04-05T06:10:52;100775.94;;;0.49;100.00
18022;BME280;9136;48.822;7.966;2023-04-05T06:13:43;100806.34;;;0.64;100.00
18022;BME280;9136;48.822;7.966;2023-04-05T06:16:35;100797.00;;;0.72;100.00
18022;BME280;9136;48.822;7.966;2023-04-05T06:19:24;100771.00;;;0.63;100.00
18022;BME280;9136;48.822;7.966;2023-04-05T06:22:14;100757.41;;;0.76;100.00
18022;BME280;9136;48.822;7.966;2023-04-05T06:25:24;100758.38;;;0.81;100.00
18022;BME280;9136;48.822;7.966;2023-04-05T06:28:14;100795.94;;;1.13;100.00
18022;BME280;9136;48.822;7.966;2023-04-05T06:31:08;100792.56;;;1.18;100.00
18022;BME280;9136;48.822;7.966;2023-04-05T06:34:07;100791.88;;;1.31;100.00
18022;BME280;9136;48.822;7.966;2023-04-05T06:36:58;100776.34;;;1.31;100.00
18022;BME280;9136;48.822;7.966;2023-04-05T06:39:57;100775.59;;;1.38;100.00
18022;BME280;9136;48.822;7.966;2023-04-05T06:42:48;100800.97;;;1.65;100.00
18022;BME280;9136;48.822;7.966;2023-04-05T06:45:39;100802.88;;;1.80;100.00
18022;BME280;9136;48.822;7.966;2023-04-05T06:48:32;100772.50;;;1.66;100.00
18022;BME280;9136;48.822;7.966;2023-04-05T06:51:23;100774.38;;;1.81;100.00
18022;BME280;9136;48.822;7.966;2023-04-05T06:54:18;100783.13;;;1.91;100.00
18022;BME280;9136;48.822;7.966;2023-04-05T06:57:17;100786.69;;;2.00;100.00
18022;BME280;9136;48.822;7.966;2023-04-05T07:00:08;100772.16;;;2.13;100.00
18022;BME280;9136;48.822;7.966;2023-04-05T07:02:59;100787.00;;;2.28;100.00
18022;BME280;9136;48.822;7.966;2023-04-05T07:05:54;100774.09;;;2.33;100.00
18022;BME280;9136;48.822;7.966;2023-04-05T07:08:45;100784.59;;;2.51;100.00
18022;BME280;9136;48.822;7.966;2023-04-05T07:11:49;100803.78;;;2.67;100.00
18022;BME280;9136;48.822;7.966;2023-04-05T07:14:39;100793.47;;;2.73;96.14
18022;BME280;9136;48.822;7.966;2023-04-05T07:17:46;100777.91;;;2.74;100.00
18022;BME280;9136;48.822;7.966;2023-04-05T07:20:41;100775.38;;;2.83;100.00
18022;BME280;9136;48.822;7.966;2023-04-05T07:23:32;100793.69;;;3.02;94.95
18022;BME280;9136;48.822;7.966;2023-04-05T07:26:24;100787.69;;;3.12;98.19
18022;BME280;9136;48.822;7.966;2023-04-05T07:29:19;100777.25;;;3.01;91.74
18022;BME280;9136;48.822;7.966;2023-04-05T07:32:15;100760.81;;;3.02;93.52
18022;BME280;9136;48.822;7.966;2023-04-05T07:35:06;100797.28;;;3.21;89.63
18022;BME280;9136;48.822;7.966;2023-04-05T07:38:08;100794.69;;;3.21;88.88
18022;BME280;9136;48.822;7.966;2023-04-05T07:40:59;100775.72;;;3.31;94.37
18022;BME280;9136;48.822;7.966;2023-04-05T07:43:53;100775.72;;;3.35;89.34
18022;BME280;9136;48.822;7.966;2023-04-05T07:47:02;100784.47;;;3.54;88.33
18022;BME280;9136;48.822;7.966;2023-04-05T07:49:55;100787.94;;;3.55;84.84
18022;BME280;9136;48.822;7.966;2023-04-05T07:52:53;100773.31;;;3.67;82.03
18022;BME280;9136;48.822;7.966;2023-04-05T07:55:42;100778.53;;;3.84;82.87
18022;BME280;9136;48.822;7.966;2023-04-05T07:58:33;100779.44;;;3.89;81.78
18022;BME280;9136;48.822;7.966;2023-04-05T08:01:23;100786.44;;;4.07;81.09
18022;BME280;9136;48.822;7.966;2023-04-05T08:04:15;100789.06;;;4.19;76.30
18022;BME280;9136;48.822;7.966;2023-04-05T08:07:24;100792.53;;;4.30;72.81
18022;BME280;9136;48.822;7.966;2023-04-05T08:10:22;100789.97;;;4.35;69.83
18022;BME280;9136;48.822;7.966;2023-04-05T08:13:24;100781.28;;;4.35;68.07
18022;BME280;9136;48.822;7.966;2023-04-05T08:16:19;100796.91;;;4.60;66.45
18022;BME280;9136;48.822;7.966;2023-04-05T08:19:11;100792.59;;;4.66;70.85
18022;BME280;9136;48.822;7.966;2023-04-05T08:21:59;100790.00;;;4.84;73.59
18022;BME280;9136;48.822;7.966;2023-04-05T08:24:53;100790.84;;;5.00;73.19
18022;BME280;9136;48.822;7.966;2023-04-05T08:35:36;100776.06;;;5.22;60.71
18022;BME280;9136;48.822;7.966;2023-04-05T08:39:00;100815.09;;;5.46;63.56
18022;BME280;9136;48.822;7.966;2023-04-05T08:42:18;100780.38;;;5.41;65.78
18022;BME280;9136;48.822;7.966;2023-04-05T08:45:31;100800.19;;;5.94;67.51
18022;BME280;9136;48.822;7.966;2023-04-05T08:48:29;100762.84;;;5.78;62.03
18022;BME280;9136;48.822;7.966;2023-04-05T08:51:24;100772.38;;;5.91;67.47
18022;BME280;9136;48.822;7.966;2023-04-05T08:54:25;100795.66;;;6.26;63.33
18022;BME280;9136;48.822;7.966;2023-04-05T08:57:24;100776.56;;;6.23;63.38
18022;BME280;9136;48.822;7.966;2023-04-05T09:00:42;100779.19;;;6.15;64.74
18022;BME280;9136;48.822;7.966;2023-04-05T09:03:35;100792.13;;;6.35;63.08
18022;BME280;9136;48.822;7.966;2023-04-05T09:06:36;100779.00;;;6.49;62.77
18022;BME280;9136;48.822;7.966;2023-04-05T09:09:31;100786.69;;;6.64;60.13
18022;BME280;9136;48.822;7.966;2023-04-05T09:12:37;100765.81;;;6.67;61.32
18022;BME280;9136;48.822;7.966;2023-04-05T09:15:44;100789.00;;;7.05;69.30
18022;BME280;9136;48.822;7.966;2023-04-05T09:18:50;100774.94;;;7.14;59.84
18022;BME280;9136;48.822;7.966;2023-04-05T09:22:02;100759.56;;;6.86;55.47
18022;BME280;9136;48.822;7.966;2023-04-05T09:24:50;100751.66;;;6.91;57.52
18022;BME280;9136;48.822;7.966;2023-04-05T09:27:54;100780.34;;;6.99;57.89
18022;BME280;9136;48.822;7.966;2023-04-05T09:30:56;100758.44;;;7.12;55.43
18022;BME280;9136;48.822;7.966;2023-04-05T09:33:52;100785.34;;;7.20;52.61
18022;BME280;9136;48.822;7.966;2023-04-05T09:36:50;100768.66;;;7.36;51.34
18022;BME280;9136;48.822;7.966;2023-04-05T09:39:42;100758.94;;;7.46;54.91
18022;BME280;9136;48.822;7.966;2023-04-05T09:42:44;100757.09;;;7.56;54.61
18022;BME280;9136;48.822;7.966;2023-04-05T09:45:55;100759.53;;;7.69;52.57
18022;BME280;9136;48.822;7.966;2023-04-05T09:48:49;100750.13;;;7.55;50.44
18022;BME280;9136;48.822;7.966;2023-04-05T09:51:51;100756.06;;;7.67;47.37
18022;BME280;9136;48.822;7.966;2023-04-05T09:54:50;100786.16;;;8.02;51.42
18022;BME280;9136;48.822;7.966;2023-04-05T09:57:43;100745.19;;;8.01;50.05
18022;BME280;9136;48.822;7.966;2023-04-05T10:00:58;100742.06;;;8.36;49.64
18022;BME280;9136;48.822;7.966;2023-04-05T10:03:50;100761.38;;;8.27;48.12
18022;BME280;9136;48.822;7.966;2023-04-05T10:06:59;100762.34;;;8.19;45.94
18022;BME280;9136;48.822;7.966;2023-04-05T10:10:06;100751.66;;;8.37;49.41
18022;BME280;9136;48.822;7.966;2023-04-05T10:13:06;100744.34;;;8.57;43.49
18022;BME280;9136;48.822;7.966;2023-04-05T10:16:12;100743.84;;;8.89;47.81
18022;BME280;9136;48.822;7.966;2023-04-05T10:19:36;100737.47;;;9.03;47.36
18022;BME280;9136;48.822;7.966;2023-04-05T10:22:26;100730.84;;;9.30;46.36
18022;BME280;9136;48.822;7.966;2023-04-05T10:25:54;100729.00;;;9.35;44.24
18022;BME280;9136;48.822;7.966;2023-04-05T10:29:08;100752.41;;;9.44;44.41
18022;BME280;9136;48.822;7.966;2023-04-05T10:32:33;100750.22;;;9.23;42.14
18022;BME280;9136;48.822;7.966;2023-04-05T10:35:40;100757.69;;;9.42;43.69
18022;BME280;9136;48.822;7.966;2023-04-05T10:39:06;100742.88;;;9.85;42.42
18022;BME280;9136;48.822;7.966;2023-04-05T10:42:09;100733.16;;;9.46;43.87
18022;BME280;9136;48.822;7.966;2023-04-05T10:45:26;100731.22;;;9.55;45.46
18022;BME280;9136;48.822;7.966;2023-04-05T10:48:33;100734.19;;;9.81;43.91
18022;BME280;9136;48.822;7.966;2023-04-05T10:51:28;100730.53;;;10.28;43.54
18022;BME280;9136;48.822;7.966;2023-04-05T10:54:38;100737.41;;;11.04;42.55
18022;BME280;9136;48.822;7.966;2023-04-05T10:57:35;100741.84;;;12.52;37.40
18022;BME280;9136;48.822;7.966;2023-04-05T11:11:42;100703.59;;;16.68;32.17
18022;BME280;9136;48.822;7.966;2023-04-05T11:14:51;100711.50;;;18.35;30.52
18022;BME280;9136;48.822;7.966;2023-04-05T11:18:24;100702.84;;;20.34;28.13
18022;BME280;9136;48.822;7.966;2023-04-05T11:25:20;100707.84;;;18.06;29.44
18022;BME280;9136;48.822;7.966;2023-04-05T11:28:21;100707.84;;;18.83;29.15
18022;BME280;9136;48.822;7.966;2023-04-05T11:31:18;100703.06;;;20.30;27.57
18022;BME280;9136;48.822;7.966;2023-04-05T11:34:33;100701.91;;;21.14;25.74
18022;BME280;9136;48.822;7.966;2023-04-05T11:37:55;100697.78;;;19.61;27.74
18022;BME280;9136;48.822;7.966;2023-04-05T11:41:06;100696.69;;;18.15;27.82
18022;BME280;9136;48.822;7.966;2023-04-05T11:44:18;100675.16;;;17.39;30.41
18022;BME280;9136;48.822;7.966;2023-04-05T11:47:35;100678.22;;;19.03;27.86
18022;BME280;9136;48.822;7.966;2023-04-05T11:50:39;100679.59;;;17.71;28.95
18022;BME280;9136;48.822;7.966;2023-04-05T11:53:35;100687.69;;;18.93;27.31
18022;BME280;9136;48.822;7.966;2023-04-05T11:56:27;100684.09;;;19.08;28.10
18022;BME280;9136;48.822;7.966;2023-04-05T11:59:56;100666.25;;;17.40;29.60
18022;BME280;9136;48.822;7.966;2023-04-05T12:02:44;100684.13;;;17.69;29.59
18022;BME280;9136;48.822;7.966;2023-04-05T12:06:02;100677.34;;;19.03;27.83
18022;BME280;9136;48.822;7.966;2023-04-05T12:09:14;100687.16;;;18.56;27.75
18022;BME280;9136;48.822;7.966;2023-04-05T12:12:15;100660.03;;;18.36;27.98
18022;BME280;9136;48.822;7.966;2023-04-05T12:15:18;100650.78;;;17.31;30.01
18022;BME280;9136;48.822;7.966;2023-04-05T12:18:14;100650.09;;;20.24;26.30
18022;BME280;9136;48.822;7.966;2023-04-05T12:21:10;100655.63;;;20.88;25.30
18022;BME280;9136;48.822;7.966;2023-04-05T12:24:07;100647.78;;;22.35;24.65
18022;BME280;9136;48.822;7.966;2023-04-05T12:27:15;100635.59;;;23.12;22.61
18022;BME280;9136;48.822;7.966;2023-04-05T12:33:39;100633.03;;;19.30;25.60
18022;BME280;9136;48.822;7.966;2023-04-05T12:36:35;100640.25;;;19.71;24.59
18022;BME280;9136;48.822;7.966;2023-04-05T12:41:28;100638.81;;;22.47;25.07
18022;BME280;9136;48.822;7.966;2023-04-05T12:43:03;100636.25;;;23.27;23.92
18022;BME280;9136;48.822;7.966;2023-04-05T12:45:55;100655.47;;;23.88;20.06
18022;BME280;9136;48.822;7.966;2023-04-05T12:48:56;100635.59;;;23.12;22.50
18022;BME280;9136;48.822;7.966;2023-04-05T12:51:49;100636.97;;;22.12;24.82
18022;BME280;9136;48.822;7.966;2023-04-05T12:54:41;100623.69;;;19.52;26.81
18022;BME280;9136;48.822;7.966;2023-04-05T12:57:30;100626.56;;;21.47;25.16
18022;BME280;9136;48.822;7.966;2023-04-05T13:00:24;100619.06;;;22.37;25.80
18022;BME280;9136;48.822;7.966;2023-04-05T13:03:19;100624.31;;;22.73;24.58
18022;BME280;9136;48.822;7.966;2023-04-05T13:06:13;100603.00;;;23.95;23.35
18022;BME280;9136;48.822;7.966;2023-04-05T13:09:04;100620.34;;;24.34;20.40
18022;BME280;9136;48.822;7.966;2023-04-05T13:11:53;100605.25;;;23.56;22.21
18022;BME280;9136;48.822;7.966;2023-04-05T13:14:46;100621.97;;;23.71;21.00
18022;BME280;9136;48.822;7.966;2023-04-05T13:17:41;100604.75;;;23.74;21.32
18022;BME280;9136;48.822;7.966;2023-04-05T13:20:35;100612.69;;;23.53;21.87
18022;BME280;9136;48.822;7.966;2023-04-05T13:23:25;100598.47;;;23.19;20.59
18022;BME280;9136;48.822;7.966;2023-04-05T13:26:15;100595.53;;;22.53;20.88
18022;BME280;9136;48.822;7.966;2023-04-05T13:29:04;100607.97;;;22.06;21.39
18022;BME280;9136;48.822;7.966;2023-04-05T13:31:53;100582.19;;;21.19;20.90
18022;BME280;9136;48.822;7.966;2023-04-05T13:34:41;100589.28;;;20.56;20.51
18022;BME280;9136;48.822;7.966;2023-04-05T13:37:29;100613.63;;;21.41;21.88
18022;BME280;9136;48.822;7.966;2023-04-05T13:40:18;100590.38;;;21.91;22.10
18022;BME280;9136;48.822;7.966;2023-04-05T13:43:07;100599.19;;;22.28;22.41
18022;BME280;9136;48.822;7.966;2023-04-05T13:45:55;100598.81;;;23.14;21.08
18022;BME280;9136;48.822;7.966;2023-04-05T13:48:43;100581.91;;;22.67;20.58
18022;BME280;9136;48.822;7.966;2023-04-05T13:51:31;100595.75;;;21.54;19.68
18022;BME280;9136;48.822;7.966;2023-04-05T13:54:19;100602.47;;;20.45;19.88
18022;BME280;9136;48.822;7.966;2023-04-05T13:57:09;100577.63;;;20.83;22.00
18022;BME280;9136;48.822;7.966;2023-04-05T14:00:01;100579.91;;;21.88;19.78
18022;BME280;9136;48.822;7.966;2023-04-05T14:02:50;100571.19;;;21.11;22.05
18022;BME280;9136;48.822;7.966;2023-04-05T14:05:38;100577.03;;;20.40;23.63
18022;BME280;9136;48.822;7.966;2023-04-05T14:08:28;100552.44;;;19.41;25.05
18022;BME280;9136;48.822;7.966;2023-04-05T14:11:17;100545.50;;;19.24;24.39
18022;BME280;9136;48.822;7.966;2023-04-05T14:14:06;100555.53;;;19.21;26.95
18022;BME280;9136;48.822;7.966;2023-04-05T14:16:55;100543.19;;;18.61;25.49
18022;BME280;9136;48.822;7.966;2023-04-05T14:19:45;100554.66;;;18.77;24.12
18022;BME280;9136;48.822;7.966;2023-04-05T14:22:35;100537.28;;;18.86;26.30
18022;BME280;9136;48.822;7.966;2023-04-05T14:25:32;100540.97;;;18.69;25.36
18022;BME280;9136;48.822;7.966;2023-04-05T14:28:20;100550.06;;;18.21;22.08
18022;BME280;9136;48.822;7.966;2023-04-05T14:31:09;100539.91;;;18.27;22.92
18022;BME280;9136;48.822;7.966;2023-04-05T14:34:01;100540.72;;;17.36;21.73
18022;BME280;9136;48.822;7.966;2023-04-05T14:36:51;100537.41;;;16.67;24.55
18022;BME280;9136;48.822;7.966;2023-04-05T14:39:43;100539.59;;;15.89;23.86
18022;BME280;9136;48.822;7.966;2023-04-05T14:42:32;100525.56;;;16.56;26.45
18022;BME280;9136;48.822;7.966;2023-04-05T14:45:20;100537.28;;;16.52;22.67
18022;BME280;9136;48.822;7.966;2023-04-05T14:48:12;100546.50;;;15.93;24.68
18022;BME280;9136;48.822;7.966;2023-04-05T14:51:04;100520.41;;;15.48;22.13
18022;BME280;9136;48.822;7.966;2023-04-05T14:53:52;100494.56;;;15.17;24.22
18022;BME280;9136;48.822;7.966;2023-04-05T14:56:40;100516.22;;;14.87;22.50
18022;BME280;9136;48.822;7.966;2023-04-05T14:59:28;100511.75;;;14.08;21.94
18022;BME280;9136;48.822;7.966;2023-04-05T15:02:16;100517.56;;;13.96;28.07
18022;BME280;9136;48.822;7.966;2023-04-05T15:05:06;100500.38;;;13.86;26.88
18022;BME280;9136;48.822;7.966;2023-04-05T15:07:54;100515.19;;;14.10;26.88
18022;BME280;9136;48.822;7.966;2023-04-05T15:10:42;100488.91;;;13.65;23.47
18022;BME280;9136;48.822;7.966;2023-04-05T15:13:32;100495.63;;;13.94;23.65
18022;BME280;9136;48.822;7.966;2023-04-05T15:16:20;100488.78;;;13.90;27.96
18022;BME280;9136;48.822;7.966;2023-04-05T15:19:10;100490.25;;;13.75;27.92
18022;BME280;9136;48.822;7.966;2023-04-05T15:21:59;100503.69;;;13.69;26.56
18022;BME280;9136;48.822;7.966;2023-04-05T15:24:48;100505.34;;;13.51;26.80
18022;BME280;9136;48.822;7.966;2023-04-05T15:27:35;100510.06;;;13.43;25.13
18022;BME280;9136;48.822;7.966;2023-04-05T15:30:23;100498.56;;;13.44;27.18
18022;BME280;9136;48.822;7.966;2023-04-05T15:33:12;100494.69;;;13.31;25.66
18022;BME280;9136;48.822;7.966;2023-04-05T15:35:59;100495.81;;;13.25;25.37
18022;BME280;9136;48.822;7.966;2023-04-05T15:38:51;100501.09;;;13.47;23.83
18022;BME280;9136;48.822;7.966;2023-04-05T15:41:39;100512.31;;;13.52;26.54
18022;BME280;9136;48.822;7.966;2023-04-05T15:44:27;100476.97;;;13.11;28.34
18022;BME280;9136;48.822;7.966;2023-04-05T15:47:16;100500.66;;;13.36;28.40
18022;BME280;9136;48.822;7.966;2023-04-05T15:50:06;100494.34;;;13.62;26.97
18022;BME280;9136;48.822;7.966;2023-04-05T15:52:54;100496.03;;;13.19;29.04
18022;BME280;9136;48.822;7.966;2023-04-05T15:55:45;100484.91;;;12.87;28.51
18022;BME280;9136;48.822;7.966;2023-04-05T15:58:33;100490.81;;;12.94;28.49
18022;BME280;9136;48.822;7.966;2023-04-05T16:01:22;100468.00;;;12.93;25.81